createdAt,value
2023-02-07T00:01:11.737Z,92.76
2023-02-07T00:03:38.770Z,93.15
2023-02-07T00:06:11.868Z,93.54
2023-02-07T00:08:39.059Z,93.07
2023-02-07T00:11:07.055Z,93.98
2023-02-07T00:13:33.704Z,93.40
2023-02-07T00:16:00.260Z,93.29
2023-02-07T00:18:26.911Z,93.40
2023-02-07T00:21:07.743Z,93.03
2023-02-07T00:23:35.197Z,93.66
2023-02-07T00:26:02.169Z,93.70
2023-02-07T00:28:28.604Z,93.19
2023-02-07T00:31:10.402Z,93.96
2023-02-07T00:33:38.825Z,94.29
2023-02-07T00:36:08.044Z,92.91
2023-02-07T00:38:34.670Z,93.51
2023-02-07T00:41:01.655Z,93.56
2023-02-07T00:43:30.362Z,93.33
2023-02-07T00:46:01.824Z,93.61
2023-02-07T00:48:30.191Z,93.31
2023-02-07T00:50:57.509Z,93.44
2023-02-07T00:53:24.312Z,93.42
2023-02-07T00:55:51.239Z,93.20
2023-02-07T00:58:17.666Z,93.16
2023-02-07T01:00:44.283Z,93.40
2023-02-07T01:03:10.739Z,93.78
2023-02-07T01:05:37.622Z,93.82
2023-02-07T01:08:04.573Z,93.37
2023-02-07T01:10:31.759Z,93.57
2023-02-07T01:12:58.148Z,94.04
2023-02-07T01:15:24.540Z,93.66
2023-02-07T01:17:50.982Z,94.24
2023-02-07T01:20:17.510Z,93.64
2023-02-07T01:22:43.936Z,93.42
2023-02-07T01:25:10.896Z,93.66
2023-02-07T01:27:37.570Z,94.27
2023-02-07T01:30:05.291Z,93.44
2023-02-07T01:32:33.971Z,93.13
2023-02-07T01:35:00.791Z,93.82
2023-02-07T01:37:27.425Z,93.86
2023-02-07T01:39:54.855Z,93.49
2023-02-07T01:42:24.582Z,93.53
2023-02-07T01:44:51.039Z,94.09
2023-02-07T01:47:24.450Z,94.08
2023-02-07T01:49:55.201Z,94.02
2023-02-07T01:52:31.008Z,93.88
2023-02-07T01:55:02.146Z,93.41
2023-02-07T01:57:28.757Z,93.28
2023-02-07T01:59:58.132Z,93.27
2023-02-07T02:02:27.733Z,94.56
2023-02-07T02:04:55.153Z,94.57
2023-02-07T02:07:22.911Z,94.40
2023-02-07T02:09:49.522Z,94.63
2023-02-07T02:12:37.410Z,94.07
2023-02-07T02:15:20.710Z,94.52
2023-02-07T02:18:05.330Z,95.14
2023-02-07T02:21:01.104Z,94.73
2023-02-07T02:23:35.081Z,95.00
2023-02-07T02:26:28.984Z,95.63
2023-02-07T02:29:20.584Z,94.28
2023-02-07T02:32:05.681Z,94.83
2023-02-07T02:34:34.464Z,95.08
2023-02-07T02:37:03.895Z,95.31
2023-02-07T02:39:33.640Z,95.00
2023-02-07T02:42:03.971Z,95.79
2023-02-07T02:44:36.875Z,95.63
2023-02-07T02:47:03.661Z,94.88
2023-02-07T02:49:33.261Z,95.86
2023-02-07T02:51:59.904Z,96.30
2023-02-07T02:54:44.415Z,96.77
2023-02-07T02:57:19.584Z,96.36
2023-02-07T03:00:23.084Z,95.97
2023-02-07T03:03:01.496Z,95.91
2023-02-07T03:05:36.258Z,95.95
2023-02-07T03:08:24.231Z,96.86
2023-02-07T03:11:04.700Z,96.10
2023-02-07T03:13:40.150Z,96.01
2023-02-07T03:16:15.511Z,96.75
2023-02-07T03:19:00.244Z,96.52
2023-02-07T03:22:01.502Z,96.17
2023-02-07T03:24:34.630Z,96.96
2023-02-07T03:27:06.016Z,96.89
2023-02-07T03:29:36.814Z,96.51
2023-02-07T03:32:06.891Z,96.76
2023-02-07T03:34:58.094Z,96.55
2023-02-07T03:37:42.393Z,97.29
2023-02-07T03:40:10.354Z,96.35
2023-02-07T03:42:39.821Z,96.73
2023-02-07T03:45:11.425Z,96.00
2023-02-07T03:47:37.872Z,97.27
2023-02-07T03:50:04.744Z,97.10
2023-02-07T03:52:31.124Z,97.32
2023-02-07T03:54:57.593Z,97.40
2023-02-07T03:57:24.115Z,96.63
2023-02-07T03:59:50.476Z,96.87
2023-02-07T04:02:16.997Z,97.15
2023-02-07T04:04:43.362Z,97.58
2023-02-07T04:07:10.723Z,97.44
2023-02-07T04:09:37.277Z,97.67
2023-02-07T04:12:04.591Z,96.89
2023-02-07T04:14:30.950Z,98.03
2023-02-07T04:16:57.395Z,97.72
2023-02-07T04:19:23.826Z,97.59
2023-02-07T04:21:50.247Z,97.63
2023-02-07T04:24:16.908Z,97.30
2023-02-07T04:26:43.306Z,96.86
2023-02-07T04:29:09.819Z,97.20
2023-02-07T04:31:37.705Z,97.55
2023-02-07T04:34:05.795Z,98.11
2023-02-07T04:36:32.157Z,97.45
2023-02-07T04:38:58.652Z,97.67
2023-02-07T04:41:25.180Z,97.68
2023-02-07T04:43:51.592Z,97.33
2023-02-07T04:46:18.002Z,97.13
2023-02-07T04:48:44.536Z,97.05
2023-02-07T04:51:11.624Z,97.20
2023-02-07T04:53:38.057Z,97.18
2023-02-07T04:56:04.852Z,97.68
2023-02-07T04:58:31.271Z,97.79
2023-02-07T05:00:57.814Z,98.07
2023-02-07T05:03:24.355Z,97.16
2023-02-07T05:05:54.811Z,98.51
2023-02-07T05:08:22.847Z,98.11
2023-02-07T05:10:55.987Z,97.95
2023-02-07T05:13:23.522Z,97.73
2023-02-07T05:15:50.297Z,98.06
2023-02-07T05:18:16.744Z,98.44
2023-02-07T05:20:43.473Z,97.72
2023-02-07T05:23:09.909Z,98.07
2023-02-07T05:25:36.699Z,97.58
2023-02-07T05:28:03.890Z,97.41
2023-02-07T05:30:30.426Z,97.45
2023-02-07T05:33:05.952Z,97.58
2023-02-07T05:35:38.511Z,96.96
2023-02-07T05:38:08.575Z,97.65
2023-02-07T05:40:36.677Z,97.89
2023-02-07T05:43:03.594Z,97.72
2023-02-07T05:45:30.537Z,97.90
2023-02-07T05:47:57.127Z,97.68
2023-02-07T05:50:24.107Z,97.83
2023-02-07T05:52:50.518Z,98.34
2023-02-07T05:55:16.973Z,98.34
2023-02-07T05:57:44.247Z,97.87
2023-02-07T06:00:16.894Z,98.92
2023-02-07T06:02:43.925Z,98.34
2023-02-07T06:05:17.073Z,98.36
2023-02-07T06:07:44.356Z,98.26
2023-02-07T06:10:11.895Z,97.43
2023-02-07T06:12:38.624Z,98.45
2023-02-07T06:15:05.484Z,97.92
2023-02-07T06:17:32.059Z,98.19
2023-02-07T06:19:58.442Z,98.75
2023-02-07T06:22:25.159Z,98.71
2023-02-07T06:24:51.646Z,97.96
2023-02-07T06:27:18.149Z,98.72
2023-02-07T06:29:44.624Z,99.13
2023-02-07T06:32:10.961Z,98.91
2023-02-07T06:34:37.501Z,98.96
2023-02-07T06:37:03.960Z,98.66
2023-02-07T06:39:30.346Z,99.41
2023-02-07T06:41:56.721Z,99.32
2023-02-07T06:44:23.138Z,98.30
2023-02-07T06:46:49.858Z,98.94
2023-02-07T06:49:16.301Z,98.85
2023-02-07T06:51:42.781Z,99.31
2023-02-07T06:54:10.393Z,98.78
2023-02-07T06:56:37.601Z,98.35
2023-02-07T06:59:04.403Z,98.81
2023-02-07T07:01:31.136Z,99.00
2023-02-07T07:03:57.573Z,98.36
2023-02-07T07:06:23.989Z,98.72
2023-02-07T07:08:51.841Z,99.47
2023-02-07T07:11:18.928Z,98.90
2023-02-07T07:13:45.593Z,98.13
2023-02-07T07:16:12.162Z,98.46
2023-02-07T07:18:39.170Z,98.62
2023-02-07T07:21:06.597Z,99.13
2023-02-07T07:23:33.543Z,98.96
2023-02-07T07:26:00.118Z,99.18
2023-02-07T07:28:26.566Z,97.99
2023-02-07T07:30:53.077Z,98.80
2023-02-07T07:33:19.498Z,99.00
2023-02-07T07:35:45.916Z,98.76
2023-02-07T07:38:12.970Z,99.39
2023-02-07T07:40:39.868Z,98.91
2023-02-07T07:43:06.538Z,98.70
2023-02-07T07:45:32.906Z,98.36
2023-02-07T07:47:59.351Z,98.16
2023-02-07T07:50:25.878Z,97.92
2023-02-07T07:52:52.229Z,98.00
2023-02-07T07:55:18.617Z,98.67
2023-02-07T07:57:45.022Z,97.97
2023-02-07T08:00:12.252Z,98.61
2023-02-07T08:02:38.754Z,98.47
2023-02-07T08:05:05.545Z,98.54
2023-02-07T08:07:31.986Z,98.37
2023-02-07T08:09:58.369Z,97.78
2023-02-07T08:12:24.852Z,98.13
2023-02-07T08:14:51.727Z,97.91
2023-02-07T08:17:18.218Z,98.48
2023-02-07T08:19:44.632Z,98.57
2023-02-07T08:22:11.077Z,98.68
2023-02-07T08:24:37.501Z,97.70
2023-02-07T08:27:04.108Z,98.21
2023-02-07T08:29:30.601Z,98.58
2023-02-07T08:31:57.120Z,98.80
2023-02-07T08:34:26.260Z,98.49
2023-02-07T08:36:53.151Z,97.92
2023-02-07T08:39:19.924Z,98.39
2023-02-07T08:41:46.453Z,97.93
2023-02-07T08:44:13.001Z,97.61
2023-02-07T08:46:39.492Z,97.15
2023-02-07T08:49:05.825Z,97.89
2023-02-07T08:51:32.245Z,96.92
2023-02-07T08:53:58.851Z,96.89
2023-02-07T08:56:27.802Z,96.65
2023-02-07T08:58:54.247Z,97.16
2023-02-07T09:01:21.038Z,96.80
2023-02-07T09:03:47.579Z,96.84
2023-02-07T09:06:13.958Z,97.32
2023-02-07T09:08:40.369Z,96.76
2023-02-07T09:11:09.881Z,97.40
2023-02-07T09:13:37.053Z,96.41
2023-02-07T09:16:03.504Z,96.13
2023-02-07T09:18:30.959Z,96.30
2023-02-07T09:20:57.351Z,95.98
2023-02-07T09:23:24.086Z,96.26
2023-02-07T09:25:52.601Z,95.40
2023-02-07T09:28:22.171Z,95.08
2023-02-07T09:30:49.547Z,94.46
2023-02-07T09:33:16.379Z,94.72
2023-02-07T09:35:46.447Z,94.69
2023-02-07T09:38:15.898Z,93.19
2023-02-07T09:40:43.341Z,93.50
2023-02-07T09:43:32.224Z,93.22
2023-02-07T09:46:06.274Z,91.50
2023-02-07T09:48:51.512Z,91.08
2023-02-07T09:51:21.266Z,90.40
2023-02-07T09:54:00.111Z,89.48
2023-02-07T09:56:29.586Z,89.59
2023-02-07T09:59:26.312Z,88.86
2023-02-07T10:01:59.746Z,88.26
2023-02-07T10:04:38.337Z,88.26
2023-02-07T10:07:09.555Z,87.25
2023-02-07T10:09:42.298Z,86.09
2023-02-07T10:12:20.342Z,86.78
2023-02-07T10:15:10.051Z,85.79
2023-02-07T10:18:07.138Z,85.28
2023-02-07T10:20:43.514Z,84.49
2023-02-07T10:23:19.697Z,85.00
2023-02-07T10:26:11.586Z,83.61
2023-02-07T10:29:22.379Z,83.03
2023-02-07T10:31:53.677Z,82.80
2023-02-07T10:34:27.680Z,81.69
2023-02-07T10:36:57.949Z,79.42
2023-02-07T10:39:30.971Z,79.11
2023-02-07T10:41:57.697Z,79.54
2023-02-07T10:44:25.110Z,79.25
2023-02-07T10:47:00.290Z,76.60
2023-02-07T10:49:29.592Z,79.12
2023-02-07T10:51:59.912Z,77.86
2023-02-07T10:54:27.304Z,75.85
2023-02-07T10:57:03.266Z,76.33
2023-02-07T10:59:32.710Z,76.29
2023-02-07T11:01:59.622Z,75.78
2023-02-07T11:04:43.796Z,76.28
2023-02-07T11:07:14.904Z,76.32
2023-02-07T11:09:42.042Z,77.03
2023-02-07T11:12:28.663Z,76.24
2023-02-07T11:15:08.623Z,74.94
2023-02-07T11:17:35.307Z,73.32
2023-02-07T11:20:06.657Z,73.17
2023-02-07T11:22:33.901Z,73.35
2023-02-07T11:25:06.242Z,73.27
2023-02-07T11:27:42.256Z,72.28
2023-02-07T11:30:16.127Z,71.81
2023-02-07T11:32:43.835Z,69.87
2023-02-07T11:35:20.720Z,69.75
2023-02-07T11:37:57.875Z,69.59
2023-02-07T11:40:37.969Z,69.48
2023-02-07T11:43:19.029Z,69.05
2023-02-07T11:45:59.547Z,67.60
2023-02-07T11:48:33.605Z,68.30
2023-02-07T11:51:03.516Z,69.27
2023-02-07T11:53:39.349Z,68.09
2023-02-07T11:56:07.056Z,68.36
2023-02-07T11:58:39.052Z,67.20
2023-02-07T12:01:07.605Z,66.69
2023-02-07T12:03:58.543Z,67.29
2023-02-07T12:06:31.588Z,66.52
2023-02-07T12:08:59.322Z,67.10
2023-02-07T12:11:33.945Z,67.10
2023-02-07T12:14:11.697Z,67.96
2023-02-07T12:16:44.595Z,67.09
2023-02-07T12:19:18.736Z,65.34
2023-02-07T12:22:05.512Z,65.55
2023-02-07T12:24:48.813Z,63.38
2023-02-07T12:27:17.319Z,61.54
2023-02-07T12:30:03.533Z,61.67
2023-02-07T12:32:55.112Z,61.05
2023-02-07T12:35:48.480Z,57.21
2023-02-07T12:38:28.292Z,58.07
2023-02-07T12:41:12.587Z,57.80
2023-02-07T12:43:41.970Z,57.05
2023-02-07T12:46:28.667Z,59.33
2023-02-07T12:49:08.677Z,58.98
2023-02-07T12:51:50.255Z,58.32
2023-02-07T12:55:02.349Z,54.86
2023-02-07T12:57:47.638Z,55.57
2023-02-07T13:00:27.753Z,56.97
2023-02-07T13:03:14.664Z,58.36
2023-02-07T13:05:50.532Z,59.61
2023-02-07T13:08:31.906Z,60.67
2023-02-07T13:11:16.457Z,62.00
2023-02-07T13:14:03.060Z,61.29
2023-02-07T13:17:07.085Z,62.94
2023-02-07T13:19:56.187Z,62.51
2023-02-07T13:22:38.155Z,62.97
2023-02-07T13:25:09.454Z,61.19
2023-02-07T13:27:36.822Z,63.13
2023-02-07T13:30:03.806Z,61.88
2023-02-07T13:32:30.248Z,63.55
2023-02-07T13:35:13.587Z,63.44
2023-02-07T13:37:52.864Z,64.30
2023-02-07T13:40:36.913Z,63.75
2023-02-07T13:43:34.766Z,63.82
2023-02-07T13:46:33.681Z,65.02
2023-02-07T13:49:14.378Z,65.21
2023-02-07T13:52:05.855Z,64.91
2023-02-07T13:55:03.227Z,65.23
2023-02-07T13:57:54.488Z,65.84
2023-02-07T14:00:24.980Z,64.34
2023-02-07T14:03:03.609Z,65.40
2023-02-07T14:05:42.456Z,65.87
2023-02-07T14:08:18.058Z,65.23
2023-02-07T14:10:53.294Z,64.08
2023-02-07T14:13:36.356Z,64.21
2023-02-07T14:16:13.264Z,64.51
2023-02-07T14:18:48.845Z,64.40
2023-02-07T14:21:21.373Z,64.82
2023-02-07T14:24:13.720Z,65.63
2023-02-07T14:26:40.110Z,65.40
2023-02-07T14:29:24.581Z,65.18
2023-02-07T14:31:56.254Z,64.27
2023-02-07T14:34:24.889Z,64.63
2023-02-07T14:36:55.048Z,65.34
2023-02-07T14:39:33.361Z,66.01
2023-02-07T14:42:21.864Z,65.39
2023-02-07T14:44:50.982Z,64.93
2023-02-07T14:47:28.122Z,65.46
2023-02-07T14:49:58.818Z,65.54
2023-02-07T14:52:35.856Z,65.94
2023-02-07T14:55:08.890Z,65.35
2023-02-07T14:57:50.399Z,64.93
2023-02-07T15:00:28.727Z,66.67
2023-02-07T15:02:58.469Z,66.19
2023-02-07T15:05:30.994Z,66.57
2023-02-07T15:08:09.458Z,66.32
2023-02-07T15:10:44.037Z,65.76
2023-02-07T15:13:30.178Z,65.70
2023-02-07T15:16:11.895Z,65.01
2023-02-07T15:18:42.729Z,65.61
2023-02-07T15:21:28.302Z,65.69
2023-02-07T15:24:03.044Z,66.25
2023-02-07T15:26:30.038Z,65.70
2023-02-07T15:28:59.286Z,66.39
2023-02-07T15:31:25.982Z,65.40
2023-02-07T15:33:56.024Z,65.47
2023-02-07T15:36:38.202Z,65.90
2023-02-07T15:39:15.466Z,65.33
2023-02-07T15:41:44.809Z,65.60
2023-02-07T15:44:22.422Z,65.46
2023-02-07T15:46:56.405Z,66.41
2023-02-07T15:49:40.683Z,66.27
2023-02-07T15:52:21.930Z,65.84
2023-02-07T15:54:51.029Z,65.54
2023-02-07T15:57:21.933Z,66.23
2023-02-07T15:59:52.170Z,66.73
2023-02-07T16:02:28.687Z,67.62
2023-02-07T16:04:55.309Z,67.49
2023-02-07T16:07:24.714Z,68.27
2023-02-07T16:09:53.828Z,68.37
2023-02-07T16:12:44.550Z,68.20
2023-02-07T16:15:30.333Z,68.36
2023-02-07T16:17:56.889Z,68.60
2023-02-07T16:20:24.636Z,68.48
2023-02-07T16:22:51.844Z,68.92
2023-02-07T16:25:22.837Z,69.39
2023-02-07T16:27:52.605Z,70.43
2023-02-07T16:30:23.344Z,70.89
2023-02-07T16:32:50.356Z,71.05
2023-02-07T16:35:23.298Z,71.72
2023-02-07T16:37:50.136Z,72.46
2023-02-07T16:40:16.953Z,72.06
2023-02-07T16:42:43.917Z,71.67
2023-02-07T16:45:23.138Z,71.43
2023-02-07T16:47:50.409Z,72.52
2023-02-07T16:50:22.484Z,73.24
2023-02-07T16:52:50.502Z,74.14
2023-02-07T16:55:19.420Z,73.67
2023-02-07T16:57:47.399Z,73.07
2023-02-07T17:00:19.378Z,73.57
2023-02-07T17:02:48.419Z,74.24
2023-02-07T17:05:16.125Z,74.58
2023-02-07T17:07:43.143Z,75.20
2023-02-07T17:10:19.211Z,75.73
2023-02-07T17:12:45.776Z,75.95
2023-02-07T17:15:12.230Z,76.16
2023-02-07T17:17:38.731Z,76.13
2023-02-07T17:20:33.510Z,75.87
2023-02-07T17:23:00.030Z,75.83
2023-02-07T17:25:29.420Z,77.13
2023-02-07T17:27:57.426Z,77.13
2023-02-07T17:30:28.592Z,77.08
2023-02-07T17:32:56.210Z,78.13
2023-02-07T17:35:23.391Z,77.92
2023-02-07T17:37:49.992Z,78.15
2023-02-07T17:40:22.231Z,78.75
2023-02-07T17:42:49.253Z,78.17
2023-02-07T17:45:15.766Z,78.57
2023-02-07T17:47:42.227Z,78.90
2023-02-07T17:50:18.361Z,79.35
2023-02-07T17:52:45.258Z,78.97
2023-02-07T17:55:11.738Z,78.98
2023-02-07T17:57:38.234Z,78.60
2023-02-07T18:00:05.332Z,80.05
2023-02-07T18:02:33.333Z,79.36
2023-02-07T18:04:59.895Z,78.79
2023-02-07T18:07:27.888Z,79.91
2023-02-07T18:09:54.360Z,79.52
2023-02-07T18:12:20.852Z,80.03
2023-02-07T18:14:47.368Z,80.08
2023-02-07T18:17:14.107Z,80.47
2023-02-07T18:19:40.557Z,80.52
2023-02-07T18:22:07.039Z,80.48
2023-02-07T18:24:33.476Z,79.99
2023-02-07T18:27:00.046Z,80.70
2023-02-07T18:29:26.490Z,80.85
2023-02-07T18:31:52.943Z,81.18
2023-02-07T18:34:19.441Z,81.34
2023-02-07T18:36:46.031Z,81.62
2023-02-07T18:39:13.650Z,81.80
2023-02-07T18:41:40.156Z,81.05
2023-02-07T18:44:07.103Z,81.42
2023-02-07T18:46:33.651Z,82.03
2023-02-07T18:49:00.119Z,81.84
2023-02-07T18:51:26.706Z,81.59
2023-02-07T18:53:56.276Z,81.98
2023-02-07T18:56:25.171Z,81.91
2023-02-07T19:00:18.998Z,82.14
2023-02-07T19:02:47.273Z,82.31
2023-02-07T19:05:14.094Z,82.54
2023-02-07T19:07:40.547Z,82.39
2023-02-07T19:10:07.132Z,81.81
2023-02-07T19:12:33.599Z,81.96
2023-02-07T19:15:00.239Z,82.10
2023-02-07T19:17:27.640Z,82.69
2023-02-07T19:19:54.144Z,81.67
2023-02-07T19:22:30.034Z,81.90
2023-02-07T19:25:01.840Z,82.66
2023-02-07T19:27:28.299Z,81.86
2023-02-07T19:29:54.656Z,82.05
2023-02-07T19:32:21.053Z,82.53
2023-02-07T19:34:49.123Z,82.68
2023-02-07T19:37:16.566Z,82.48
2023-02-07T19:39:44.740Z,82.60
2023-02-07T19:42:11.124Z,83.02
2023-02-07T19:44:37.485Z,82.48
2023-02-07T19:47:04.521Z,82.46
2023-02-07T19:49:31.007Z,82.72
2023-02-07T19:51:57.481Z,82.63
2023-02-07T19:54:24.220Z,83.85
2023-02-07T19:56:50.631Z,83.41
2023-02-07T19:59:18.587Z,83.23
2023-02-07T20:01:45.100Z,83.30
2023-02-07T20:04:11.700Z,82.95
2023-02-07T20:06:38.186Z,83.41
2023-02-07T20:09:06.504Z,84.20
2023-02-07T20:11:33.668Z,83.68
2023-02-07T20:14:04.158Z,84.38
2023-02-07T20:16:33.781Z,83.69
2023-02-07T20:19:01.103Z,83.89
2023-02-07T20:21:30.038Z,84.09
2023-02-07T20:23:57.699Z,83.94
2023-02-07T20:26:36.442Z,84.26
2023-02-07T20:29:05.575Z,84.89
2023-02-07T20:31:32.457Z,83.76
2023-02-07T20:33:59.858Z,85.02
2023-02-07T20:36:26.456Z,84.87
2023-02-07T20:38:53.483Z,84.57
2023-02-07T20:41:31.911Z,84.62
2023-02-07T20:44:05.235Z,84.81
2023-02-07T20:46:33.706Z,84.67
2023-02-07T20:49:03.025Z,84.98
2023-02-07T20:51:30.013Z,85.13
2023-02-07T20:53:59.327Z,85.19
2023-02-07T20:56:26.964Z,84.13
2023-02-07T20:58:54.416Z,84.73
2023-02-07T21:01:23.914Z,84.66
2023-02-07T21:03:52.319Z,85.22
2023-02-07T21:06:19.759Z,85.20
2023-02-07T21:08:46.660Z,85.02
2023-02-07T21:11:14.440Z,85.08
2023-02-07T21:13:42.187Z,85.08
2023-02-07T21:16:08.740Z,85.19
2023-02-07T21:18:35.372Z,85.49
2023-02-07T21:21:08.964Z,86.48
2023-02-07T21:23:35.680Z,86.07
2023-02-07T21:26:06.663Z,85.47
2023-02-07T21:28:34.115Z,86.45
2023-02-07T21:31:15.598Z,86.25
2023-02-07T21:33:42.059Z,86.48
2023-02-07T21:36:13.945Z,85.72
2023-02-07T21:38:43.648Z,86.51
2023-02-07T21:41:11.907Z,86.85
2023-02-07T21:43:40.179Z,86.49
2023-02-07T21:46:13.082Z,86.82
2023-02-07T21:48:41.761Z,86.83
2023-02-07T21:51:14.949Z,86.33
2023-02-07T21:53:41.576Z,86.88
2023-02-07T21:56:11.710Z,86.17
2023-02-07T21:58:38.172Z,87.11
2023-02-07T22:01:10.709Z,86.76
2023-02-07T22:03:38.793Z,87.52
2023-02-07T22:06:06.539Z,87.10
2023-02-07T22:08:37.327Z,86.94
2023-02-07T22:11:06.311Z,87.19
2023-02-07T22:13:33.591Z,87.13
2023-02-07T22:16:00.119Z,87.94
2023-02-07T22:18:26.752Z,86.76
2023-02-07T22:20:53.185Z,87.87
2023-02-07T22:23:19.768Z,86.89
2023-02-07T22:25:46.115Z,87.85
2023-02-07T22:28:12.830Z,87.47
2023-02-07T22:30:41.209Z,88.23
2023-02-07T22:33:09.725Z,87.35
2023-02-07T22:35:41.559Z,86.98
2023-02-07T22:38:10.059Z,87.60
2023-02-07T22:40:37.835Z,86.89
2023-02-07T22:43:08.073Z,87.62
2023-02-07T22:45:38.370Z,87.92
2023-02-07T22:48:06.213Z,87.15
2023-02-07T22:50:33.389Z,87.75
2023-02-07T22:52:59.715Z,87.46
2023-02-07T22:55:26.171Z,88.21
2023-02-07T22:57:52.571Z,86.78
2023-02-07T23:00:19.739Z,88.02
2023-02-07T23:02:46.156Z,87.92
2023-02-07T23:05:12.814Z,87.83
2023-02-07T23:07:39.224Z,88.29
2023-02-07T23:10:07.343Z,87.47
2023-02-07T23:12:33.811Z,88.22
2023-02-07T23:15:00.360Z,88.01
2023-02-07T23:17:27.803Z,88.40
2023-02-07T23:19:54.555Z,88.15
2023-02-07T23:22:21.468Z,88.70
2023-02-07T23:24:48.048Z,89.03
2023-02-07T23:27:15.419Z,88.43
2023-02-07T23:29:41.867Z,88.21
2023-02-07T23:32:08.282Z,87.92
2023-02-07T23:34:34.720Z,88.58
2023-02-07T23:37:01.208Z,88.40
2023-02-07T23:39:27.624Z,88.28
2023-02-07T23:41:54.104Z,88.52
2023-02-07T23:44:20.446Z,88.04
2023-02-07T23:46:46.829Z,88.96
2023-02-07T23:49:13.200Z,88.26
2023-02-07T23:51:39.734Z,88.59
2023-02-07T23:54:06.244Z,89.16
2023-02-07T23:56:32.723Z,88.68
2023-02-07T23:58:59.149Z,88.67
